SVR732 UKBB-URSS
Flight info
| Callsign | SVR732 |
|---|---|
| Flight time | N/A |
| Altitude | 37000 |
| Route | BASOR DCT EKTIN DCT GODOD DCT KVR DCT ARNAD DCT ANAKA DCT MOBIT MOBIT1L |
| Aircraft | A320/M-SDE3FGHIRWY/LB1 |
Departure
| Time | 2026-04-29 22:42 |
|---|---|
| Airport | Boryspil International Airport (UKBB) |
Arrival
| Time | N/A |
|---|---|
| Airport | Sochi International Airport (URSS) |
| Time | Latitude | Longitude | Altitude | Speed | Heading |
|---|---|---|---|---|---|
| 2026-04-29 22:25 | 50.35153 | 30.89883 | 430 ft | 0 kts | 272° |
| 2026-04-29 22:31 | 50.35153 | 30.89917 | 419 ft | 4 kts | 264° |
| 2026-04-29 22:32 | 50.35158 | 30.89958 | 427 ft | 4 kts | 246° |
| 2026-04-29 22:32 | 50.35166 | 30.89983 | 417 ft | 0 kts | 233° |
| 2026-04-29 22:35 | 50.35164 | 30.89982 | 421 ft | 1 kts | 218° |
| 2026-04-29 22:36 | 50.35157 | 30.89987 | 418 ft | 3 kts | 163° |
| 2026-04-29 22:36 | 50.35115 | 30.90007 | 423 ft | 9 kts | 175° |
| 2026-04-29 22:36 | 50.35044 | 30.90003 | 430 ft | 11 kts | 182° |
| 2026-04-29 22:36 | 50.34955 | 30.89996 | 420 ft | 14 kts | 182° |
| 2026-04-29 22:37 | 50.34880 | 30.90087 | 425 ft | 16 kts | 127° |
| 2026-04-29 22:37 | 50.34771 | 30.90112 | 428 ft | 18 kts | 182° |
| 2026-04-29 22:37 | 50.34641 | 30.90104 | 420 ft | 20 kts | 182° |
| 2026-04-29 22:37 | 50.34496 | 30.90095 | 430 ft | 22 kts | 182° |
| 2026-04-29 22:38 | 50.34335 | 30.90085 | 421 ft | 24 kts | 182° |
| 2026-04-29 22:38 | 50.34162 | 30.90071 | 423 ft | 26 kts | 183° |
| 2026-04-29 22:38 | 50.33975 | 30.90057 | 423 ft | 28 kts | 183° |
| 2026-04-29 22:38 | 50.33799 | 30.90043 | 430 ft | 18 kts | 183° |
| 2026-04-29 22:39 | 50.33725 | 30.90087 | 434 ft | 12 kts | 112° |
| 2026-04-29 22:39 | 50.33654 | 30.90144 | 424 ft | 14 kts | 183° |
| 2026-04-29 22:39 | 50.33549 | 30.90136 | 435 ft | 17 kts | 182° |
| 2026-04-29 22:39 | 50.33424 | 30.90126 | 432 ft | 20 kts | 183° |
| 2026-04-29 22:40 | 50.33273 | 30.90116 | 426 ft | 23 kts | 182° |
| 2026-04-29 22:40 | 50.33104 | 30.90103 | 427 ft | 25 kts | 182° |
| 2026-04-29 22:40 | 50.32924 | 30.90089 | 437 ft | 27 kts | 182° |
| 2026-04-29 22:40 | 50.32730 | 30.90075 | 438 ft | 29 kts | 182° |
| 2026-04-29 22:41 | 50.32553 | 30.90062 | 431 ft | 17 kts | 181° |
| 2026-04-29 22:41 | 50.32450 | 30.90145 | 435 ft | 17 kts | 116° |
| 2026-04-29 22:41 | 50.32472 | 30.90322 | 435 ft | 18 kts | 43° |
| 2026-04-29 22:41 | 50.32620 | 30.90393 | 441 ft | 33 kts | 2° |
| 2026-04-29 22:42 | 50.33084 | 30.90427 | 431 ft | 97 kts | 2° |
| 2026-04-29 22:42 | 50.33931 | 30.90489 | 426 ft | 145 kts | 2° |
| 2026-04-29 22:42 | 50.35043 | 30.90562 | 690 ft | 163 kts | 2° |
| 2026-04-29 22:42 | 50.36168 | 30.90705 | 1400 ft | 161 kts | 5° |
| 2026-04-29 22:43 | 50.37313 | 30.90888 | 1914 ft | 174 kts | 6° |
| 2026-04-29 22:43 | 50.38592 | 30.91092 | 2146 ft | 197 kts | 6° |
| 2026-04-29 22:43 | 50.40043 | 30.91315 | 2433 ft | 222 kts | 5° |
| 2026-04-29 22:43 | 50.41640 | 30.91475 | 2997 ft | 242 kts | 2° |
| 2026-04-29 22:44 | 50.43342 | 30.91547 | 3841 ft | 247 kts | 0° |
| 2026-04-29 22:44 | 50.45075 | 30.91585 | 4760 ft | 249 kts | 360° |
| 2026-04-29 22:44 | 50.46820 | 30.91613 | 5648 ft | 252 kts | 359° |
| 2026-04-29 22:44 | 50.48592 | 30.91644 | 6544 ft | 257 kts | 359° |
| 2026-04-29 22:45 | 50.50393 | 30.91705 | 7358 ft | 261 kts | 4° |
| 2026-04-29 22:45 | 50.52134 | 30.92578 | 8125 ft | 270 kts | 31° |
| 2026-04-29 22:45 | 50.53449 | 30.94714 | 8896 ft | 279 kts | 60° |
| 2026-04-29 22:45 | 50.54023 | 30.97608 | 9669 ft | 285 kts | 78° |
| 2026-04-29 22:46 | 50.54571 | 31.00634 | 10286 ft | 293 kts | 62° |
| 2026-04-29 22:46 | 50.55630 | 31.03456 | 10641 ft | 309 kts | 60° |
| 2026-04-29 22:46 | 50.56179 | 31.06747 | 11197 ft | 319 kts | 90° |
| 2026-04-29 22:46 | 50.55607 | 31.10122 | 11869 ft | 325 kts | 120° |
| 2026-04-29 22:47 | 50.54052 | 31.12680 | 12541 ft | 329 kts | 149° |
| 2026-04-29 22:47 | 50.51892 | 31.13776 | 13207 ft | 331 kts | 179° |
| 2026-04-29 22:47 | 50.49648 | 31.13131 | 13857 ft | 331 kts | 207° |
| 2026-04-29 22:47 | 50.47748 | 31.11109 | 14455 ft | 332 kts | 224° |
| 2026-04-29 22:48 | 50.46205 | 31.08406 | 15013 ft | 334 kts | 234° |
| 2026-04-29 22:48 | 50.44660 | 31.05635 | 15578 ft | 340 kts | 225° |
| 2026-04-29 22:48 | 50.42798 | 31.03289 | 16125 ft | 347 kts | 215° |
| 2026-04-29 22:48 | 50.40719 | 31.01313 | 16675 ft | 352 kts | 210° |
| 2026-04-29 22:49 | 50.38545 | 30.99473 | 17223 ft | 357 kts | 208° |
| 2026-04-29 22:49 | 50.36349 | 30.97608 | 17765 ft | 362 kts | 209° |
| 2026-04-29 22:49 | 50.34147 | 30.95643 | 18310 ft | 366 kts | 210° |
| 2026-04-29 22:49 | 50.31982 | 30.93600 | 18824 ft | 371 kts | 211° |
| 2026-04-29 22:50 | 50.29751 | 30.91512 | 19311 ft | 375 kts | 207° |
| 2026-04-29 22:50 | 50.27339 | 30.89915 | 19811 ft | 378 kts | 196° |
| 2026-04-29 22:50 | 50.24775 | 30.88974 | 20366 ft | 379 kts | 189° |
| 2026-04-29 22:50 | 50.22172 | 30.88213 | 20898 ft | 382 kts | 189° |
| 2026-04-29 22:51 | 50.19544 | 30.87459 | 21389 ft | 386 kts | 188° |
| 2026-04-29 22:51 | 50.16893 | 30.86699 | 21862 ft | 389 kts | 188° |
| 2026-04-29 22:51 | 50.11515 | 30.85158 | 22794 ft | 397 kts | 188° |
| 2026-04-29 22:52 | 50.08774 | 30.84662 | 23246 ft | 397 kts | 178° |
| 2026-04-29 22:52 | 50.06020 | 30.84924 | 23708 ft | 396 kts | 166° |
| 2026-04-29 22:52 | 50.03350 | 30.85936 | 24133 ft | 394 kts | 156° |
| 2026-04-29 22:52 | 50.00856 | 30.87660 | 24539 ft | 391 kts | 146° |
| 2026-04-29 22:53 | 49.98544 | 30.89907 | 24940 ft | 392 kts | 143° |
| 2026-04-29 22:53 | 49.96236 | 30.92201 | 25333 ft | 396 kts | 144° |
| 2026-04-29 22:53 | 49.93934 | 30.94478 | 25719 ft | 399 kts | 144° |
| 2026-04-29 22:53 | 49.91583 | 30.96793 | 26104 ft | 402 kts | 145° |
| 2026-04-29 22:54 | 49.89208 | 30.99123 | 26481 ft | 406 kts | 146° |
| 2026-04-29 22:54 | 49.86811 | 31.01474 | 26818 ft | 410 kts | 146° |
| 2026-04-29 22:54 | 49.84390 | 31.03846 | 27188 ft | 413 kts | 147° |
| 2026-04-29 22:54 | 49.81952 | 31.06230 | 27554 ft | 416 kts | 147° |
| 2026-04-29 22:55 | 49.79496 | 31.08631 | 27917 ft | 419 kts | 147° |
| 2026-04-29 22:55 | 49.77026 | 31.11043 | 28268 ft | 421 kts | 147° |
| 2026-04-29 22:55 | 49.74540 | 31.13473 | 28613 ft | 424 kts | 147° |
| 2026-04-29 22:55 | 49.72035 | 31.15918 | 28949 ft | 427 kts | 148° |
| 2026-04-29 22:56 | 49.69514 | 31.18372 | 29282 ft | 430 kts | 148° |
| 2026-04-29 22:56 | 49.66975 | 31.20841 | 29616 ft | 432 kts | 148° |
| 2026-04-29 22:56 | 49.64417 | 31.23327 | 29903 ft | 436 kts | 149° |
| 2026-04-29 22:56 | 49.61833 | 31.25832 | 30164 ft | 441 kts | 150° |
| 2026-04-29 22:57 | 49.59220 | 31.28361 | 30445 ft | 444 kts | 150° |
| 2026-04-29 22:57 | 49.56629 | 31.30867 | 30714 ft | 447 kts | 150° |
| 2026-04-29 22:57 | 49.53952 | 31.33456 | 31002 ft | 450 kts | 150° |
| 2026-04-29 22:57 | 49.51295 | 31.36022 | 31280 ft | 452 kts | 150° |
| 2026-04-29 22:58 | 49.48623 | 31.38598 | 31561 ft | 454 kts | 150° |
| 2026-04-29 22:58 | 49.45969 | 31.41153 | 31825 ft | 457 kts | 150° |
| 2026-04-29 22:58 | 49.43272 | 31.43749 | 32123 ft | 458 kts | 150° |
| 2026-04-29 22:58 | 49.40573 | 31.46348 | 32497 ft | 458 kts | 150° |
| 2026-04-29 22:59 | 49.37870 | 31.48948 | 32865 ft | 458 kts | 150° |
| 2026-04-29 22:59 | 49.35169 | 31.51536 | 33242 ft | 458 kts | 150° |
| 2026-04-29 22:59 | 49.32468 | 31.54117 | 33628 ft | 457 kts | 150° |
| 2026-04-29 22:59 | 49.29768 | 31.56690 | 34017 ft | 457 kts | 151° |
| 2026-04-29 23:00 | 49.27067 | 31.59262 | 34362 ft | 457 kts | 151° |
| 2026-04-29 23:00 | 49.24366 | 31.61832 | 34626 ft | 457 kts | 151° |
| 2026-04-29 23:00 | 49.21663 | 31.64403 | 34899 ft | 457 kts | 151° |
| 2026-04-29 23:00 | 49.18961 | 31.66970 | 35159 ft | 457 kts | 151° |
| 2026-04-29 23:01 | 49.16257 | 31.69534 | 35428 ft | 457 kts | 152° |
| 2026-04-29 23:01 | 49.13556 | 31.72096 | 35695 ft | 457 kts | 151° |
| 2026-04-29 23:01 | 49.10858 | 31.74658 | 35951 ft | 457 kts | 151° |
| 2026-04-29 23:01 | 49.08159 | 31.77215 | 36205 ft | 457 kts | 151° |
| 2026-04-29 23:02 | 49.05450 | 31.79771 | 36450 ft | 456 kts | 151° |
| 2026-04-29 23:02 | 49.02779 | 31.82285 | 36686 ft | 456 kts | 151° |
| 2026-04-29 23:02 | 49.00073 | 31.84831 | 36920 ft | 456 kts | 151° |
| 2026-04-29 23:02 | 48.97374 | 31.87371 | 37149 ft | 456 kts | 151° |
| 2026-04-29 23:03 | 48.94679 | 31.89906 | 37279 ft | 456 kts | 151° |
| 2026-04-29 23:03 | 48.91987 | 31.92436 | 37301 ft | 451 kts | 151° |
| 2026-04-29 23:03 | 48.87527 | 31.96612 | 37300 ft | 448 kts | 151° |
| 2026-04-29 23:04 | 48.82253 | 32.01528 | 37303 ft | 448 kts | 151° |
| 2026-04-29 23:04 | 48.76947 | 32.06479 | 37303 ft | 448 kts | 151° |
| 2026-04-29 23:05 | 48.71634 | 32.11420 | 37297 ft | 448 kts | 152° |
| 2026-04-29 23:05 | 48.66311 | 32.16362 | 37304 ft | 448 kts | 152° |
| 2026-04-29 23:06 | 48.60986 | 32.21284 | 37310 ft | 448 kts | 152° |
| 2026-04-29 23:06 | 48.55677 | 32.26253 | 37317 ft | 450 kts | 147° |
| 2026-04-29 23:07 | 48.53280 | 32.29315 | 37305 ft | 454 kts | 136° |
| 2026-04-29 23:07 | 48.51249 | 32.32980 | 37305 ft | 457 kts | 126° |
| 2026-04-29 23:07 | 48.47699 | 32.40943 | 37295 ft | 458 kts | 126° |
| 2026-04-29 23:08 | 48.44115 | 32.48893 | 37294 ft | 459 kts | 126° |
| 2026-04-29 23:08 | 48.40516 | 32.56843 | 37297 ft | 459 kts | 126° |
| 2026-04-29 23:09 | 48.36910 | 32.64785 | 37303 ft | 460 kts | 127° |
| 2026-04-29 23:09 | 48.32952 | 32.72301 | 37296 ft | 458 kts | 133° |
| 2026-04-29 23:10 | 48.28852 | 32.79555 | 37291 ft | 459 kts | 133° |
| 2026-04-29 23:10 | 48.24716 | 32.86859 | 37297 ft | 459 kts | 133° |
| 2026-04-29 23:11 | 48.20574 | 32.94159 | 37297 ft | 459 kts | 133° |
| 2026-04-29 23:11 | 48.16424 | 33.01444 | 37294 ft | 459 kts | 133° |
| 2026-04-29 23:12 | 48.12269 | 33.08708 | 37295 ft | 459 kts | 133° |
| 2026-04-29 23:12 | 48.08138 | 33.15926 | 37296 ft | 459 kts | 133° |
| 2026-04-29 23:13 | 48.03838 | 33.22955 | 37295 ft | 456 kts | 141° |
| 2026-04-29 23:13 | 47.99150 | 33.29325 | 37286 ft | 455 kts | 141° |
| 2026-04-29 23:14 | 47.94457 | 33.35687 | 37271 ft | 456 kts | 141° |
| 2026-04-29 23:14 | 47.89757 | 33.42048 | 37276 ft | 456 kts | 141° |